»·PEaware :: 3A-MCH EDDS-LSGG

3A-MCH :: EDDS-LSGG

FLIGHT INFORMATION

Flight Status: Arrived
Operator: Privately registered:
Monaco
More flights under this callsign
Pilot: Timothy W. (9658)
Aircraft: ECLIPSE 500
(EA50)
More flights by this aircraft type
Origin: EDDS Stuttgart
Germany
Destination: LSGG Geneva
Switzerland
More flights between these airports :: More routes between these airports
Route: ROTW5B ROTWE Y126 TUBLO N850 NATOR N869 RINLI UN869 BENOT BENO1T
File this flight plan on PilotEdge
Remarks:
Altitude:
(Current/Filed)
24,000ft
Speed:
(Current/Filed)
268kts
Departed: 24-Aug-18 11:39 AM
Arrived: 24-Aug-18 12:36 PM
Distance/Time
Traveled:
194nm/0:56
Distance/Time
To Go:
Arrived

Flight Plot

Page will automatically refresh every two minutes.

Flight plan parsing failed; only flown route is shown


Map Options




Map Legend


Flown Route
Filed Route
Departure Airport
Arrival Airport
Navaid (VOR, NDB)
Fix

Horizontal Profiles

Position Reports

Time Latitude Longitude Heading Altitude Ground
Speed
24-Aug-18 11:28 48.691241 9.212524 191 1278ft 0kts
24-Aug-18 11:29 48.691241 9.212524 191 1278ft 0kts
24-Aug-18 11:30 48.691241 9.212524 191 1278ft 0kts
24-Aug-18 11:31 48.691241 9.212524 191 1278ft 0kts
24-Aug-18 11:32 48.691241 9.212524 191 1278ft 0kts
24-Aug-18 11:33 48.691241 9.212524 191 1278ft 0kts
24-Aug-18 11:34 48.691241 9.212524 191 1278ft 0kts
24-Aug-18 11:35 48.690828 9.213835 117 1278ft 12kts
24-Aug-18 11:36 48.691237 9.219854 73 1278ft 15kts
24-Aug-18 11:37 48.692427 9.226117 74 1278ft 15kts
24-Aug-18 11:38 48.693858 9.233707 74 1278ft 18kts
24-Aug-18 11:39 48.695198 9.240842 73 1278ft 18kts
24-Aug-18 11:40 48.693328 9.240138 253 1278ft 59kts
24-Aug-18 11:41 48.684665 9.189582 253 2592ft 148kts
24-Aug-18 11:42 48.673150 9.131592 253 5010ft 146kts
24-Aug-18 11:43 48.661789 9.073484 253 7247ft 146kts
24-Aug-18 11:44 48.650497 9.015306 253 9328ft 145kts
24-Aug-18 11:45 48.639352 8.957746 253 11241ft 145kts
24-Aug-18 11:46 48.628114 8.899734 252 12991ft 147kts
24-Aug-18 11:47 48.614950 8.842216 230 14607ft 153kts
24-Aug-18 11:48 48.586087 8.794217 232 16152ft 157kts
24-Aug-18 11:49 48.556614 8.745282 232 17584ft 161kts
24-Aug-18 11:50 48.526161 8.694995 232 18931ft 164kts
24-Aug-18 11:51 48.506920 8.634640 253 20168ft 165kts
24-Aug-18 11:52 48.494529 8.568163 253 21346ft 168kts
24-Aug-18 11:53 48.481865 8.499675 254 22441ft 172kts
24-Aug-18 11:54 48.468966 8.429872 252 23485ft 175kts
24-Aug-18 11:55 48.420899 8.401365 201 24021ft 216kts
24-Aug-18 11:56 48.356566 8.380251 199 24023ft 258kts
24-Aug-18 11:57 48.282737 8.356699 199 24021ft 287kts
24-Aug-18 11:58 48.202041 8.331244 198 24017ft 305kts
24-Aug-18 11:59 48.124565 8.283782 213 24026ft 307kts
24-Aug-18 12:00 48.054096 8.227099 214 24050ft 269kts
24-Aug-18 12:01 47.989025 8.174477 214 24068ft 271kts
24-Aug-18 12:02 47.922815 8.121047 214 24069ft 271kts
24-Aug-18 12:03 47.856434 8.067642 214 24071ft 271kts
24-Aug-18 12:04 47.790051 8.014394 214 24067ft 272kts
24-Aug-18 12:05 47.724284 7.961811 214 24071ft 271kts
24-Aug-18 12:06 47.658197 7.909084 214 24070ft 271kts
24-Aug-18 12:07 47.592602 7.856380 214 24075ft 271kts
24-Aug-18 12:08 47.526359 7.803670 213 24073ft 271kts
24-Aug-18 12:09 47.459801 7.750993 213 24073ft 271kts
24-Aug-18 12:10 47.394070 7.699165 213 24076ft 271kts
24-Aug-18 12:11 47.328056 7.647228 213 24070ft 272kts
24-Aug-18 12:12 47.275598 7.573422 234 24056ft 264kts
24-Aug-18 12:13 47.229982 7.489782 234 24051ft 264kts
24-Aug-18 12:14 47.185251 7.407270 234 24047ft 264kts
24-Aug-18 12:15 47.139514 7.323101 234 24046ft 264kts
24-Aug-18 12:16 47.093863 7.239164 234 24044ft 264kts
24-Aug-18 12:17 47.048303 7.155676 235 23751ft 266kts
24-Aug-18 12:18 47.002965 7.073065 236 22225ft 258kts
24-Aug-18 12:19 46.958087 6.991152 236 20700ft 258kts
24-Aug-18 12:20 46.913743 6.910113 236 19181ft 257kts
24-Aug-18 12:21 46.870166 6.830694 234 17722ft 257kts
24-Aug-18 12:22 46.825600 6.750277 234 16220ft 251kts
24-Aug-18 12:23 46.782388 6.672291 233 14733ft 247kts
24-Aug-18 12:24 46.739993 6.595689 233 13242ft 243kts
24-Aug-18 12:25 46.683923 6.552315 202 11943ft 218kts
24-Aug-18 12:26 46.628866 6.525488 201 10734ft 205kts
24-Aug-18 12:27 46.575188 6.499502 201 9532ft 202kts
24-Aug-18 12:28 46.522721 6.474129 201 8332ft 198kts
24-Aug-18 12:29 46.471366 6.448554 214 7129ft 193kts
24-Aug-18 12:30 46.433867 6.396449 227 6464ft 191kts
24-Aug-18 12:31 46.396928 6.342539 226 5401ft 187kts
24-Aug-18 12:32 46.360772 6.289419 226 4420ft 185kts
24-Aug-18 12:33 46.324922 6.236614 226 3446ft 183kts
24-Aug-18 12:34 46.289598 6.184720 225 2492ft 178kts
24-Aug-18 12:35 46.262094 6.144420 226 1731ft 104kts
24-Aug-18 12:36 46.244855 6.119033 226 1367ft 42kts
24-Aug-18 12:37 46.238942 6.109230 312 1367ft 13kts
24-Aug-18 12:38 46.239356 6.105256 227 1367ft 14kts
24-Aug-18 12:39 46.237025 6.101097 302 1367ft 11kts
24-Aug-18 12:40 46.235382 6.098971 136 1367ft 0kts
24-Aug-18 12:41 46.235382 6.098971 136 1367ft 0kts

Navigation Log

Ident Type
Flight plan parsing failed, navigation log unavailable